Time;durP1;ratioP1;P1;durP2;ratioP2;P2;SDS_P1;SDS_P2;PMS_P1;PMS_P2;Temp;Humidity;BMP_temperature;BMP_pressure;BME280_temperature;BME280_humidity;BME280_pressure;Samples;Min_cycle;Max_cycle;Signal;HPM_P1;HPM_P2
2021/06/15 00:01:26;;;;;;;6.35;2.88;;;;;;;19.54;39.29;101429.34;7983958;28;20029;-71
2021/06/15 00:05:17;;;;;;;7.43;3.90;;;;;;;19.57;39.10;101439.72;7988999;28;20111;-71
2021/06/15 00:09:08;;;;;;;6.80;3.38;;;;;;;19.46;39.59;101432.75;7987439;28;20479;-71
2021/06/15 00:12:59;;;;;;;7.68;3.67;;;;;;;19.43;39.59;101443.72;7988854;28;20041;-71
2021/06/15 00:16:50;;;;;;;6.65;3.40;;;;;;;19.38;39.65;101447.78;7974094;28;20040;-71
2021/06/15 00:20:41;;;;;;;8.57;4.13;;;;;;;19.31;39.59;101450.16;7975767;28;20690;-71
2021/06/15 00:24:31;;;;;;;8.07;4.07;;;;;;;19.26;39.89;101450.63;7974753;28;20433;-70
2021/06/15 00:28:22;;;;;;;6.13;3.47;;;;;;;19.19;40.05;101460.16;7977695;28;20146;-72
2021/06/15 00:32:13;;;;;;;6.43;4.00;;;;;;;19.15;40.30;101444.59;7979234;28;20029;-71
2021/06/15 00:36:04;;;;;;;10.77;3.80;;;;;;;19.11;40.30;101454.66;7971031;28;20041;-71
2021/06/15 00:39:54;;;;;;;7.03;4.25;;;;;;;19.05;40.16;101452.59;7984857;28;20064;-71
2021/06/15 00:43:45;;;;;;;11.70;4.10;;;;;;;19.01;40.66;101453.84;7985612;28;20038;-71
2021/06/15 00:47:37;;;;;;;9.30;4.78;;;;;;;18.99;40.60;101455.81;7987496;28;20033;-71
2021/06/15 00:51:28;;;;;;;9.25;3.92;;;;;;;18.95;40.63;101457.06;7969860;28;20049;-71
2021/06/15 00:55:24;;;;;;;9.73;4.45;;;;;;;18.86;40.68;101442.78;7972267;28;20099;-71
2021/06/15 00:59:15;;;;;;;10.18;4.03;;;;;;;18.87;40.98;101456.94;7970228;28;20026;-71
2021/06/15 01:03:06;;;;;;;9.75;4.53;;;;;;;18.80;41.18;101446.03;7989166;28;20106;-71
2021/06/15 01:07:09;;;;;;;8.10;4.55;;;;;;;18.78;41.20;101452.44;7972952;28;20044;-71
2021/06/15 01:11:16;;;;;;;11.77;4.95;;;;;;;18.73;41.39;101452.06;7957512;28;20057;-71
2021/06/15 01:15:17;;;;;;;10.68;5.05;;;;;;;18.70;41.18;101460.31;7970593;28;20038;-70
2021/06/15 01:19:45;;;;;;;11.00;4.60;;;;;;;18.62;41.38;101458.34;7977186;28;20040;-69
2021/06/15 01:23:48;;;;;;;10.50;4.70;;;;;;;18.58;41.54;101466.75;7973037;28;20421;-70
2021/06/15 01:27:41;;;;;;;6.45;4.00;;;;;;;18.54;41.70;101460.00;7985637;28;20041;-70
2021/06/15 01:32:04;;;;;;;11.18;5.22;;;;;;;18.48;41.58;101463.25;7967771;28;20115;-70
2021/06/15 01:35:58;;;;;;;20.35;5.35;;;;;;;18.47;41.80;101459.75;7977438;28;20044;-70
2021/06/15 01:39:56;;;;;;;8.77;4.97;;;;;;;18.45;41.82;101461.69;7991657;28;20037;-71
2021/06/15 01:43:56;;;;;;;13.52;5.95;;;;;;;18.38;41.94;101449.88;7988147;28;20037;-73
2021/06/15 01:48:07;;;;;;;7.53;4.68;;;;;;;18.35;42.31;101466.13;7989211;28;20040;-71
2021/06/15 01:52:00;;;;;;;10.80;5.47;;;;;;;18.36;42.14;101476.63;7988249;28;20040;-71
2021/06/15 01:55:54;;;;;;;7.40;5.43;;;;;;;18.33;42.56;101466.25;7973989;28;20440;-70
2021/06/15 01:59:51;;;;;;;10.18;5.90;;;;;;;18.28;42.55;101471.13;7974325;28;20067;-72
2021/06/15 02:03:43;;;;;;;8.30;5.18;;;;;;;18.25;42.41;101463.44;7975911;28;20041;-72
2021/06/15 02:07:43;;;;;;;10.18;5.40;;;;;;;18.22;42.93;101469.03;7991557;28;20041;-70
2021/06/15 02:11:36;;;;;;;11.50;5.82;;;;;;;18.13;42.84;101455.72;7973321;28;20094;-70
2021/06/15 02:15:41;;;;;;;8.80;5.35;;;;;;;18.17;43.13;101465.94;7969740;28;20034;-72
2021/06/15 02:19:55;;;;;;;12.20;6.82;;;;;;;18.13;42.93;101467.19;7971044;28;20049;-70
2021/06/15 02:23:48;;;;;;;11.88;6.32;;;;;;;18.12;43.11;101459.34;7983960;28;20405;-70
2021/06/15 02:27:41;;;;;;;11.45;6.95;;;;;;;18.09;43.43;101465.78;7997075;28;20061;-71
2021/06/15 02:31:38;;;;;;;10.25;6.55;;;;;;;18.02;43.38;101459.34;7987861;28;20067;-70
2021/06/15 02:35:37;;;;;;;10.80;6.38;;;;;;;17.97;43.48;101458.91;7997852;28;20053;-71
2021/06/15 02:39:33;;;;;;;10.05;6.38;;;;;;;17.94;43.46;101456.53;7993910;28;20090;-72
2021/06/15 02:43:25;;;;;;;17.17;5.82;;;;;;;17.90;43.53;101461.22;8006019;28;20036;-70
2021/06/15 02:47:18;;;;;;;11.73;6.90;;;;;;;17.88;43.89;101465.84;7983306;28;20033;-71
2021/06/15 02:51:10;;;;;;;10.10;6.32;;;;;;;17.83;43.69;101472.53;8000823;28;20056;-72
2021/06/15 02:55:07;;;;;;;11.40;7.22;;;;;;;17.81;44.09;101485.13;7970367;28;20038;-72
2021/06/15 02:58:59;;;;;;;11.13;6.70;;;;;;;17.75;44.20;101477.69;7959084;28;20132;-70
2021/06/15 03:02:49;;;;;;;12.02;7.13;;;;;;;17.67;44.28;101475.66;7964729;28;20082;-72
2021/06/15 03:06:42;;;;;;;10.27;6.95;;;;;;;17.68;44.11;101474.69;7971909;28;20053;-71
2021/06/15 03:10:33;;;;;;;10.95;7.28;;;;;;;17.66;44.23;101484.59;7962883;28;20487;-70
2021/06/15 03:14:29;;;;;;;15.43;6.82;;;;;;;17.56;44.44;101465.13;7997651;28;20025;-73
2021/06/15 03:18:32;;;;;;;12.13;6.93;;;;;;;17.57;44.44;101487.22;7974020;28;20103;-72
2021/06/15 03:22:32;;;;;;;10.20;6.68;;;;;;;17.52;44.57;101483.16;7992209;28;20041;-71
2021/06/15 03:26:48;;;;;;;11.18;7.15;;;;;;;17.47;44.86;101501.28;7992918;28;20502;-71
2021/06/15 03:30:43;;;;;;;12.90;7.43;;;;;;;17.45;44.82;101500.56;7996199;28;20047;-69
2021/06/15 03:34:40;;;;;;;13.60;6.53;;;;;;;17.41;44.99;101509.75;7985560;28;20056;-69
2021/06/15 03:38:35;;;;;;;11.38;7.40;;;;;;;17.41;45.07;101498.28;7998191;28;20148;-70
2021/06/15 03:42:29;;;;;;;10.40;7.05;;;;;;;17.40;45.05;101496.63;7982222;28;20049;-72
2021/06/15 03:46:22;;;;;;;11.20;7.32;;;;;;;17.39;44.91;101503.75;7980859;28;20037;-71
2021/06/15 03:50:15;;;;;;;15.70;8.18;;;;;;;17.37;45.33;101510.16;7966248;28;20052;-72
2021/06/15 03:54:08;;;;;;;18.40;7.43;;;;;;;17.33;45.44;101492.78;7951229;28;20524;-70
2021/06/15 03:58:01;;;;;;;13.88;8.07;;;;;;;17.39;45.59;101500.25;7984990;28;20088;-72
2021/06/15 04:01:52;;;;;;;13.52;7.55;;;;;;;17.41;45.75;101506.25;7986845;28;20490;-71
2021/06/15 04:05:44;;;;;;;21.10;8.63;;;;;;;17.40;45.83;101505.41;7989721;28;20118;-70
2021/06/15 04:09:39;;;;;;;14.95;7.78;;;;;;;17.41;46.09;101511.56;7973794;28;20423;-71
2021/06/15 04:13:30;;;;;;;10.43;7.50;;;;;;;17.43;45.87;101521.13;7992124;28;20045;-72
2021/06/15 04:17:24;;;;;;;13.52;7.95;;;;;;;17.48;46.15;101539.31;7989060;28;20099;-73
2021/06/15 04:21:15;;;;;;;14.43;8.23;;;;;;;17.48;46.24;101534.84;7991710;28;20033;-72
2021/06/15 04:25:10;;;;;;;12.23;8.50;;;;;;;17.47;46.39;101522.53;7992325;28;20048;-71
2021/06/15 04:29:03;;;;;;;18.50;7.43;;;;;;;17.54;46.47;101547.59;7997068;28;20040;-72
2021/06/15 04:32:56;;;;;;;12.05;7.80;;;;;;;17.56;46.41;101544.81;7995393;28;20083;-71
2021/06/15 04:36:49;;;;;;;16.42;7.57;;;;;;;17.62;46.54;101556.72;7992638;28;20044;-71
2021/06/15 04:40:47;;;;;;;15.20;8.23;;;;;;;17.64;46.46;101557.44;7971676;28;20033;-71
2021/06/15 04:44:43;;;;;;;9.57;6.97;;;;;;;17.70;46.42;101562.25;7985534;28;20114;-71
2021/06/15 04:48:37;;;;;;;11.57;7.25;;;;;;;17.83;46.32;101565.56;7984891;28;20030;-71
2021/06/15 04:52:29;;;;;;;20.48;8.15;;;;;;;18.02;46.89;101570.16;7983405;28;20076;-71
2021/06/15 04:56:21;;;;;;;11.80;6.55;;;;;;;18.10;46.74;101562.34;7983849;28;20036;-71
2021/06/15 05:00:13;;;;;;;15.50;7.60;;;;;;;18.24;46.82;101570.78;7980699;28;20041;-72
2021/06/15 05:04:05;;;;;;;14.00;8.25;;;;;;;18.41;46.91;101559.50;7988325;28;20036;-70
2021/06/15 05:08:08;;;;;;;9.20;7.00;;;;;;;18.71;46.96;101558.63;7985752;28;20032;-69
2021/06/15 05:12:01;;;;;;;15.98;7.63;;;;;;;19.00;46.72;101571.97;7987104;28;20036;-69
2021/06/15 05:15:54;;;;;;;13.50;7.38;;;;;;;19.12;46.75;101573.53;7989094;28;20065;-69
2021/06/15 05:19:45;;;;;;;17.42;7.68;;;;;;;19.28;46.77;101584.50;7982603;28;20036;-69
2021/06/15 05:23:45;;;;;;;12.88;7.60;;;;;;;19.37;46.43;101593.47;7989963;28;20040;-69
2021/06/15 05:27:36;;;;;;;13.15;7.40;;;;;;;19.51;46.32;101568.22;7972113;28;20063;-69
2021/06/15 05:31:26;;;;;;;16.63;7.32;;;;;;;19.72;46.01;101575.03;7979435;28;20038;-69
2021/06/15 05:35:17;;;;;;;10.45;7.00;;;;;;;19.90;45.93;101574.31;7980466;28;20464;-70
2021/06/15 05:39:09;;;;;;;10.35;7.10;;;;;;;20.08;46.23;101576.09;7963621;28;20037;-70
2021/06/15 05:42:59;;;;;;;12.10;6.80;;;;;;;20.31;45.98;101578.38;7969067;28;20480;-70
2021/06/15 05:46:50;;;;;;;11.65;6.97;;;;;;;20.51;45.82;101577.31;7981648;28;20043;-70
2021/06/15 05:50:40;;;;;;;12.90;6.85;;;;;;;20.80;45.67;101580.63;7983325;28;20041;-69
2021/06/15 05:54:32;;;;;;;19.33;7.38;;;;;;;21.20;45.49;101577.56;7989812;28;20041;-71
2021/06/15 05:58:23;;;;;;;10.15;6.30;;;;;;;21.75;45.33;101572.81;7989984;28;20041;-70
2021/06/15 06:02:13;;;;;;;11.15;6.22;;;;;;;22.35;44.45;101562.13;7991372;28;20025;-70
2021/06/15 06:10:13;;;;;;;11.23;6.95;;;;;;;23.38;43.75;101559.81;8005128;28;20030;-70
2021/06/15 06:14:04;;;;;;;13.10;6.15;;;;;;;24.13;43.15;101573.78;7994847;28;20043;-70
2021/06/15 06:18:04;;;;;;;14.30;6.50;;;;;;;24.92;42.15;101582.69;7982744;28;20032;-70
2021/06/15 06:21:54;;;;;;;12.93;7.07;;;;;;;25.74;41.91;101589.06;7983370;28;20555;-71
2021/06/15 06:25:46;;;;;;;10.88;6.00;;;;;;;26.41;41.07;101579.06;7981347;28;20069;-70
2021/06/15 06:29:36;;;;;;;11.25;5.45;;;;;;;27.16;40.10;101587.63;7966413;28;20468;-70
2021/06/15 06:33:27;;;;;;;12.95;6.43;;;;;;;27.81;39.51;101581.94;7986769;28;20052;-71
2021/06/15 06:37:18;;;;;;;11.95;5.90;;;;;;;28.52;38.77;101593.34;7987821;28;20021;-72
2021/06/15 06:41:08;;;;;;;9.10;6.07;;;;;;;28.78;38.13;101600.75;7975983;28;20037;-72
2021/06/15 06:44:59;;;;;;;12.73;5.32;;;;;;;29.11;37.50;101596.25;7995382;28;20045;-72
2021/06/15 06:48:50;;;;;;;9.85;5.45;;;;;;;29.68;36.96;101597.53;7978169;28;20102;-71
2021/06/15 06:52:40;;;;;;;8.32;5.47;;;;;;;30.29;36.51;101595.31;7996622;28;20037;-73
2021/06/15 06:56:31;;;;;;;9.70;5.75;;;;;;;30.91;35.61;101591.06;7995841;28;20033;-71
2021/06/15 07:00:22;;;;;;;9.00;4.68;;;;;;;31.43;35.05;101588.00;7992080;28;20032;-72
2021/06/15 07:04:13;;;;;;;8.07;4.93;;;;;;;31.95;34.14;101593.97;8000533;28;20398;-72
2021/06/15 07:08:04;;;;;;;9.98;4.93;;;;;;;32.36;33.12;101596.03;7995298;28;20037;-72
2021/06/15 07:11:55;;;;;;;9.00;4.78;;;;;;;32.72;32.99;101589.75;7970353;28;20110;-75
2021/06/15 07:15:46;;;;;;;9.13;5.20;;;;;;;33.09;32.28;101591.28;7989958;28;20041;-72
2021/06/15 07:19:37;;;;;;;7.72;4.20;;;;;;;33.42;31.85;101593.50;7998939;28;20029;-72
2021/06/15 07:23:27;;;;;;;8.02;4.47;;;;;;;33.67;31.08;101593.25;7988581;28;20509;-73
2021/06/15 07:27:18;;;;;;;8.00;4.10;;;;;;;33.83;31.06;101588.97;7991581;28;20063;-72
2021/06/15 07:31:09;;;;;;;8.60;4.43;;;;;;;33.95;30.44;101596.09;7999142;28;20097;-72
2021/06/15 07:34:59;;;;;;;9.00;4.30;;;;;;;34.08;30.34;101600.47;7992420;28;20375;-72
2021/06/15 07:38:51;;;;;;;7.30;4.35;;;;;;;34.21;29.78;101602.94;7994310;28;20650;-72
2021/06/15 07:42:42;;;;;;;7.65;3.92;;;;;;;34.39;29.51;101604.66;7991559;28;20044;-74
2021/06/15 07:46:33;;;;;;;7.38;4.15;;;;;;;34.63;29.00;101609.78;7993473;28;20040;-72
2021/06/15 07:50:24;;;;;;;5.97;3.30;;;;;;;34.89;28.43;101611.13;7986659;28;20041;-73
2021/06/15 07:54:15;;;;;;;5.88;3.40;;;;;;;35.07;27.71;101612.81;7982673;28;20617;-73
2021/06/15 07:58:06;;;;;;;4.85;2.92;;;;;;;35.25;27.29;101617.25;7976790;28;20033;-72
2021/06/15 08:01:57;;;;;;;6.07;3.53;;;;;;;35.45;27.26;101621.13;7991911;28;20649;-72
2021/06/15 08:05:48;;;;;;;3.65;2.72;;;;;;;35.64;26.92;101616.25;7990442;28;20754;-73
2021/06/15 08:09:38;;;;;;;4.45;2.60;;;;;;;35.67;26.56;101614.94;7960940;28;20102;-74
2021/06/15 08:13:30;;;;;;;5.05;2.92;;;;;;;35.77;26.30;101599.50;7984841;28;20146;-73
2021/06/15 08:17:20;;;;;;;5.50;3.17;;;;;;;35.94;25.80;101605.75;7988826;28;20485;-74
2021/06/15 08:21:13;;;;;;;6.60;2.25;;;;;;;36.13;25.46;101602.72;7989504;28;20036;-75
2021/06/15 08:25:05;;;;;;;4.47;2.42;;;;;;;36.20;25.25;101597.91;7989951;28;20045;-74
2021/06/15 08:28:55;;;;;;;4.80;2.33;;;;;;;36.32;25.22;101599.44;7991523;28;20056;-72
2021/06/15 08:32:46;;;;;;;4.80;2.40;;;;;;;36.36;24.51;101592.34;7996844;28;20111;-74
2021/06/15 08:36:37;;;;;;;4.43;2.15;;;;;;;36.44;24.27;101588.38;7995772;28;20124;-75
2021/06/15 08:40:29;;;;;;;5.07;2.22;;;;;;;36.54;24.14;101593.13;7985890;28;20630;-74
2021/06/15 08:44:20;;;;;;;2.95;2.20;;;;;;;36.48;23.74;101581.28;7978154;28;20035;-74
2021/06/15 08:48:11;;;;;;;6.85;2.40;;;;;;;36.43;23.74;101582.06;7979877;28;20041;-74
2021/06/15 08:52:02;;;;;;;4.70;2.08;;;;;;;36.42;23.67;101587.78;7981845;28;20029;-75
2021/06/15 08:55:59;;;;;;;3.92;2.50;;;;;;;36.36;23.29;101580.59;7986751;28;20041;-74
2021/06/15 08:59:50;;;;;;;5.63;2.28;;;;;;;36.16;23.69;101580.34;7979766;28;20026;-73
2021/06/15 09:03:41;;;;;;;4.68;2.53;;;;;;;35.86;23.83;101575.28;7986801;28;20043;-73
2021/06/15 09:07:56;;;;;;;2.97;1.95;;;;;;;35.38;24.36;101581.41;7987431;28;20643;-74
2021/06/15 09:11:56;;;;;;;3.97;2.20;;;;;;;34.89;24.55;101585.72;7979540;28;20041;-72
2021/06/15 09:15:46;;;;;;;2.42;1.80;;;;;;;34.37;25.02;101585.00;7989537;28;20083;-73
2021/06/15 09:19:40;;;;;;;3.92;2.08;;;;;;;33.85;25.76;101593.13;7990523;28;20041;-73
2021/06/15 09:23:33;;;;;;;2.17;1.58;;;;;;;33.37;26.04;101587.06;7974535;28;20057;-73
2021/06/15 09:27:38;;;;;;;6.93;2.05;;;;;;;32.96;26.40;101596.94;7972832;28;20758;-72
2021/06/15 09:31:28;;;;;;;3.65;1.90;;;;;;;32.62;26.62;101593.00;7976529;28;20036;-73
2021/06/15 09:35:22;;;;;;;2.30;1.50;;;;;;;32.30;26.40;101591.53;7976521;28;20033;-73
2021/06/15 09:39:13;;;;;;;3.35;1.52;;;;;;;32.02;26.73;101602.06;7961235;28;20048;-73
2021/06/15 09:43:11;;;;;;;4.97;1.30;;;;;;;31.77;26.47;101585.84;7980306;28;20034;-72
2021/06/15 09:47:06;;;;;;;2.60;1.30;;;;;;;31.46;26.98;101584.84;7981919;28;20068;-74
2021/06/15 09:51:14;;;;;;;3.13;2.13;;;;;;;31.25;26.43;101592.53;7987734;28;20033;-73
2021/06/15 09:55:07;;;;;;;6.85;1.58;;;;;;;30.92;26.43;101587.31;7983780;28;20062;-73
2021/06/15 09:58:59;;;;;;;3.45;1.60;;;;;;;30.67;26.97;101587.25;7985374;28;20150;-72
2021/06/15 10:02:54;;;;;;;2.53;1.40;;;;;;;30.50;26.88;101597.75;7971605;28;20033;-72
2021/06/15 10:06:56;;;;;;;3.47;1.52;;;;;;;30.28;27.27;101596.41;7973932;28;20069;-73
2021/06/15 10:10:47;;;;;;;4.80;2.17;;;;;;;30.09;26.89;101589.13;7993203;28;20037;-71
2021/06/15 10:14:38;;;;;;;3.65;1.40;;;;;;;29.92;26.99;101583.31;7980459;28;20483;-73
2021/06/15 10:18:29;;;;;;;9.95;1.90;;;;;;;29.78;26.62;101583.59;7975976;28;20535;-73
2021/06/15 10:22:21;;;;;;;5.18;1.50;;;;;;;29.65;27.08;101595.25;7976317;28;20132;-74
2021/06/15 10:26:12;;;;;;;2.35;1.30;;;;;;;29.51;26.93;101585.44;7977662;28;20076;-71
2021/06/15 10:30:03;;;;;;;3.25;1.70;;;;;;;29.41;27.70;101595.88;7961074;28;20037;-72
2021/06/15 10:33:54;;;;;;;2.75;1.55;;;;;;;29.23;27.30;101583.78;7981467;28;20048;-72
2021/06/15 10:37:46;;;;;;;6.50;1.17;;;;;;;29.17;27.43;101587.31;7968209;28;20033;-73
2021/06/15 10:41:36;;;;;;;3.80;1.25;;;;;;;29.05;27.07;101586.22;7986011;28;20040;-72
2021/06/15 10:45:28;;;;;;;2.05;1.38;;;;;;;28.92;27.16;101569.97;7998947;28;20039;-73
2021/06/15 10:49:18;;;;;;;1.40;1.20;;;;;;;28.82;27.02;101569.56;7991265;28;20069;-70
2021/06/15 10:53:10;;;;;;;2.15;1.20;;;;;;;28.67;27.31;101574.31;7992358;28;20049;-73
2021/06/15 10:57:17;;;;;;;1.55;1.30;;;;;;;28.65;27.38;101574.50;7992816;28;20383;-73
2021/06/15 11:01:22;;;;;;;1.80;1.15;;;;;;;28.58;27.43;101578.22;7969177;28;20041;-71
2021/06/15 11:05:38;;;;;;;1.85;1.10;;;;;;;28.45;27.42;101579.00;7987755;28;20038;-73
2021/06/15 11:09:33;;;;;;;5.85;1.77;;;;;;;28.39;27.58;101569.81;7980156;28;20040;-71
2021/06/15 11:13:44;;;;;;;5.00;1.20;;;;;;;28.32;27.70;101568.97;7982129;28;20036;-72
2021/06/15 11:17:56;;;;;;;1.45;1.30;;;;;;;28.29;27.76;101565.84;7983332;28;20083;-73
2021/06/15 11:21:54;;;;;;;2.47;1.45;;;;;;;28.30;27.40;101567.47;7990898;28;20052;-72
2021/06/15 11:25:45;;;;;;;1.25;1.15;;;;;;;28.24;27.84;101569.13;7973423;28;20040;-72
2021/06/15 11:29:37;;;;;;;2.65;1.25;;;;;;;28.20;27.55;101572.44;7987994;28;20047;-72
2021/06/15 11:34:03;;;;;;;1.55;0.93;;;;;;;28.10;27.54;101571.94;7970236;28;20037;-71
2021/06/15 11:37:54;;;;;;;1.65;1.00;;;;;;;28.10;27.62;101575.47;7995189;28;20037;-72
2021/06/15 11:42:03;;;;;;;1.25;0.90;;;;;;;28.08;27.84;101571.31;7989023;28;20043;-71
2021/06/15 11:45:55;;;;;;;1.38;1.00;;;;;;;28.08;27.31;101565.91;7985805;28;20071;-71
2021/06/15 11:50:05;;;;;;;2.17;1.00;;;;;;;28.02;27.44;101567.53;7961684;28;20045;-71
2021/06/15 11:53:56;;;;;;;1.10;1.00;;;;;;;28.05;27.50;101558.22;7976448;28;20045;-71
2021/06/15 11:57:46;;;;;;;1.38;1.10;;;;;;;28.06;27.79;101560.69;7993572;28;20036;-71
2021/06/15 12:01:37;;;;;;;1.85;0.90;;;;;;;28.06;27.53;101560.69;7978760;28;20088;-71
2021/06/15 12:05:28;;;;;;;1.20;1.05;;;;;;;28.05;27.61;101563.63;7984324;28;20033;-71
2021/06/15 12:09:18;;;;;;;1.75;1.02;;;;;;;28.04;27.65;101549.28;7985330;28;20033;-71
2021/06/15 12:13:20;;;;;;;1.25;1.00;;;;;;;28.00;27.84;101548.00;7984586;28;20028;-71
2021/06/15 12:17:10;;;;;;;3.03;1.50;;;;;;;27.99;27.83;101545.50;7986801;28;20036;-72
2021/06/15 12:21:05;;;;;;;1.48;0.95;;;;;;;28.03;27.86;101549.47;7988513;28;20389;-72
2021/06/15 12:24:56;;;;;;;3.33;1.08;;;;;;;28.01;27.75;101543.44;7986503;28;20041;-73
2021/06/15 12:29:00;;;;;;;3.78;1.00;;;;;;;28.02;28.04;101545.94;7987609;28;20396;-71
2021/06/15 12:32:50;;;;;;;1.95;1.30;;;;;;;28.00;28.01;101556.09;7994023;28;20493;-71
2021/06/15 12:36:45;;;;;;;1.73;1.00;;;;;;;27.93;27.70;101556.06;7983317;28;20041;-71
2021/06/15 12:40:39;;;;;;;3.22;1.00;;;;;;;27.87;27.81;101553.34;7980573;28;20080;-71
2021/06/15 12:44:32;;;;;;;1.42;1.00;;;;;;;27.79;28.01;101558.88;7974114;28;20040;-71
2021/06/15 12:48:24;;;;;;;1.55;1.00;;;;;;;27.75;28.02;101552.22;7981634;28;20033;-71
2021/06/15 12:52:15;;;;;;;1.33;0.95;;;;;;;27.73;27.84;101556.97;7981627;28;20048;-71
2021/06/15 12:56:23;;;;;;;4.53;0.82;;;;;;;27.68;27.89;101549.47;7982053;28;20078;-71
2021/06/15 13:00:16;;;;;;;2.35;1.20;;;;;;;27.62;27.90;101544.88;7977860;28;20045;-71
2021/06/15 13:04:24;;;;;;;3.25;0.95;;;;;;;27.58;28.14;101548.13;7987122;28;20037;-71
2021/06/15 13:08:14;;;;;;;1.50;1.00;;;;;;;27.51;28.34;101550.75;7984505;28;20065;-71
2021/06/15 13:12:07;;;;;;;2.40;1.10;;;;;;;27.46;27.98;101542.44;7986756;28;20587;-71
2021/06/15 13:16:11;;;;;;;2.38;0.88;;;;;;;27.35;27.71;101546.50;7987054;28;20565;-71
2021/06/15 13:20:08;;;;;;;2.20;1.13;;;;;;;27.29;27.83;101539.19;7989457;28;20404;-71
2021/06/15 13:24:09;;;;;;;1.38;0.90;;;;;;;27.17;27.67;101521.88;7990971;28;20048;-71
2021/06/15 13:28:02;;;;;;;1.60;0.90;;;;;;;27.20;27.97;101532.28;7984608;28;20041;-71
2021/06/15 13:31:54;;;;;;;2.80;1.25;;;;;;;27.17;27.82;101519.19;7973924;28;20484;-71
2021/06/15 13:35:45;;;;;;;1.88;1.10;;;;;;;27.16;28.04;101533.69;7980418;28;20038;-71
2021/06/15 13:39:44;;;;;;;1.65;0.82;;;;;;;27.11;27.58;101525.34;7974680;28;20092;-71
2021/06/15 13:43:38;;;;;;;4.28;1.38;;;;;;;27.09;27.81;101531.97;7981894;28;20037;-71
2021/06/15 13:47:28;;;;;;;0.65;0.65;;;;;;;27.05;28.01;101528.81;7982341;28;20752;-71
2021/06/15 13:51:19;;;;;;;2.30;0.90;;;;;;;27.05;27.70;101531.50;7982243;28;20079;-70
2021/06/15 13:55:10;;;;;;;0.90;0.90;;;;;;;27.03;27.84;101522.75;7964537;28;20037;-71
2021/06/15 13:59:01;;;;;;;1.38;0.80;;;;;;;26.97;27.55;101513.56;7983433;28;20431;-71
2021/06/15 14:02:51;;;;;;;2.35;0.90;;;;;;;26.95;27.79;101510.25;7986903;28;20547;-71
2021/06/15 14:06:47;;;;;;;2.38;1.00;;;;;;;26.95;27.76;101512.09;7963995;28;20414;-71
2021/06/15 14:10:37;;;;;;;3.95;1.00;;;;;;;26.99;28.12;101516.91;7993000;28;20033;-71
2021/06/15 14:14:28;;;;;;;2.25;0.95;;;;;;;26.98;27.73;101500.94;8001788;28;20110;-71
2021/06/15 14:18:19;;;;;;;1.50;1.00;;;;;;;26.94;27.79;101497.78;8000637;28;20090;-71
2021/06/15 14:22:09;;;;;;;1.25;0.80;;;;;;;26.92;27.85;101496.31;7980332;28;20044;-71
2021/06/15 14:26:00;;;;;;;5.93;1.05;;;;;;;26.88;27.49;101484.25;7982943;28;20041;-71
2021/06/15 14:29:51;;;;;;;0.95;0.80;;;;;;;26.83;28.05;101494.78;7983866;28;20024;-71
2021/06/15 14:33:42;;;;;;;6.43;1.23;;;;;;;26.82;27.68;101493.13;7982667;28;20029;-71
2021/06/15 14:37:32;;;;;;;1.13;1.02;;;;;;;26.83;27.59;101487.53;7982651;28;20044;-71
2021/06/15 14:41:23;;;;;;;3.65;1.08;;;;;;;26.86;27.93;101491.69;7981959;28;20033;-71
2021/06/15 14:45:16;;;;;;;1.35;1.00;;;;;;;26.87;27.90;101487.97;7995008;28;20040;-71
2021/06/15 14:49:07;;;;;;;0.77;0.77;;;;;;;26.82;27.65;101474.25;7970603;28;20037;-72
2021/06/15 14:52:58;;;;;;;1.85;0.95;;;;;;;26.78;28.03;101475.66;7997616;28;20238;-72
2021/06/15 14:56:49;;;;;;;1.75;1.00;;;;;;;26.70;27.93;101465.84;7977291;28;20405;-72
2021/06/15 15:00:40;;;;;;;1.75;1.00;;;;;;;26.70;28.20;101468.53;7993252;28;20037;-71
2021/06/15 15:04:30;;;;;;;0.95;0.95;;;;;;;26.65;27.85;101460.19;8000609;28;20116;-72
2021/06/15 15:08:21;;;;;;;2.50;0.88;;;;;;;26.69;28.01;101461.47;7996118;28;20056;-73
2021/06/15 15:12:11;;;;;;;0.85;0.80;;;;;;;26.58;28.18;101453.91;7980776;28;20051;-72
2021/06/15 15:16:03;;;;;;;4.15;1.00;;;;;;;26.63;28.29;101461.44;7974630;28;20034;-72
2021/06/15 15:19:54;;;;;;;3.30;0.77;;;;;;;26.59;28.16;101452.91;7966586;28;20038;-72
2021/06/15 15:23:46;;;;;;;4.20;1.02;;;;;;;26.53;27.83;101446.38;7972760;28;20036;-72
2021/06/15 15:27:38;;;;;;;2.15;1.05;;;;;;;26.49;27.93;101449.66;7985870;28;20040;-71
2021/06/15 15:31:31;;;;;;;1.27;0.95;;;;;;;26.43;27.97;101445.84;7987480;28;20045;-72
2021/06/15 15:35:22;;;;;;;3.40;0.90;;;;;;;26.39;28.24;101436.47;7988744;28;20471;-70
2021/06/15 15:39:12;;;;;;;1.92;1.00;;;;;;;26.31;28.24;101431.22;7987930;28;20024;-72
2021/06/15 15:43:04;;;;;;;5.03;1.98;;;;;;;26.29;28.37;101435.16;7982583;28;20037;-71
2021/06/15 15:46:55;;;;;;;1.80;1.00;;;;;;;26.24;27.99;101435.72;7966319;28;20028;-72
2021/06/15 15:50:45;;;;;;;1.48;0.93;;;;;;;26.20;28.21;101433.59;7989725;28;20025;-72
2021/06/15 15:54:36;;;;;;;1.52;1.00;;;;;;;26.11;28.46;101427.50;7989654;28;20048;-72
2021/06/15 15:58:26;;;;;;;4.00;1.73;;;;;;;26.08;27.97;101431.41;7991510;28;20041;-71
2021/06/15 16:02:17;;;;;;;3.35;1.05;;;;;;;26.02;28.18;101418.69;7989508;28;20044;-71
2021/06/15 16:06:08;;;;;;;2.03;1.15;;;;;;;25.99;28.24;101421.75;7986594;28;20032;-72
2021/06/15 16:09:59;;;;;;;2.20;0.90;;;;;;;25.93;28.56;101419.81;7978779;28;20135;-72
2021/06/15 16:13:50;;;;;;;1.60;1.10;;;;;;;25.90;28.72;101424.72;7980019;28;20036;-69
2021/06/15 16:17:41;;;;;;;2.08;1.17;;;;;;;25.84;28.40;101417.41;7980246;28;20025;-70
2021/06/15 16:21:31;;;;;;;2.35;1.10;;;;;;;25.76;28.41;101412.13;7982413;28;20063;-70
2021/06/15 16:25:22;;;;;;;3.05;1.10;;;;;;;25.80;28.76;101422.34;7983291;28;20494;-69
2021/06/15 16:29:13;;;;;;;2.63;1.20;;;;;;;25.79;28.83;101414.44;7984045;28;20113;-70
2021/06/15 16:33:04;;;;;;;4.40;1.30;;;;;;;25.73;28.80;101416.03;7986241;28;20033;-70
2021/06/15 16:36:55;;;;;;;1.52;1.00;;;;;;;25.68;28.48;101411.22;7989762;28;20037;-69
2021/06/15 16:40:46;;;;;;;6.00;1.10;;;;;;;25.62;28.84;101416.50;8004075;28;20029;-69
2021/06/15 16:44:38;;;;;;;3.38;1.50;;;;;;;25.58;28.71;101409.84;7980839;28;20115;-69
2021/06/15 16:48:29;;;;;;;3.05;1.25;;;;;;;25.55;28.56;101411.06;7995025;28;20030;-70
2021/06/15 16:52:20;;;;;;;2.38;1.00;;;;;;;25.52;28.57;101415.97;7978965;28;20084;-70
2021/06/15 16:56:10;;;;;;;2.25;1.15;;;;;;;25.47;28.57;101413.00;7959165;28;20034;-70
2021/06/15 17:00:01;;;;;;;4.95;1.10;;;;;;;25.42;29.03;101410.84;7977911;28;20041;-69
2021/06/15 17:03:52;;;;;;;2.17;1.30;;;;;;;25.35;28.95;101401.84;7981110;28;20030;-69
2021/06/15 17:07:45;;;;;;;2.13;1.30;;;;;;;25.31;29.10;101407.78;7981350;28;20032;-69
2021/06/15 17:11:35;;;;;;;1.85;1.13;;;;;;;25.27;29.19;101404.63;7985072;28;20032;-69
2021/06/15 17:15:33;;;;;;;2.67;1.25;;;;;;;25.20;28.96;101399.13;7991353;28;20059;-70
2021/06/15 17:19:24;;;;;;;1.50;1.00;;;;;;;25.12;29.07;101409.97;7993737;28;20041;-71
2021/06/15 17:23:16;;;;;;;6.93;1.23;;;;;;;25.08;29.07;101394.41;7985434;28;20047;-70
2021/06/15 17:27:07;;;;;;;1.33;1.02;;;;;;;25.00;29.14;101392.63;7992166;28;20043;-70
2021/06/15 17:30:59;;;;;;;4.78;1.25;;;;;;;24.96;29.50;101393.19;7986356;28;20025;-70
2021/06/15 17:34:49;;;;;;;3.53;1.10;;;;;;;24.91;29.35;101390.19;7985164;28;20028;-70
2021/06/15 17:38:40;;;;;;;2.00;1.25;;;;;;;24.87;29.94;101388.91;7988123;28;20036;-70
2021/06/15 17:42:32;;;;;;;3.50;1.30;;;;;;;24.84;30.07;101381.19;7975717;28;20030;-72
2021/06/15 17:46:24;;;;;;;4.40;1.50;;;;;;;24.76;30.02;101372.19;7976520;28;20108;-72
2021/06/15 17:50:14;;;;;;;6.65;1.30;;;;;;;24.72;29.87;101381.63;7978315;28;20028;-72
2021/06/15 17:54:06;;;;;;;2.00;1.00;;;;;;;24.69;30.11;101376.59;7977788;28;20114;-71
2021/06/15 17:57:58;;;;;;;3.38;1.20;;;;;;;24.63;29.85;101380.03;7971207;28;101584;-70
2021/06/15 18:01:49;;;;;;;2.33;1.05;;;;;;;24.60;30.21;101380.38;7976993;28;20052;-70
2021/06/15 18:09:34;;;;;;;3.53;1.20;;;;;;;24.45;30.38;101375.97;7986087;28;20070;-71